sensor_id;sensor_type;location;lat;lon;timestamp;P1;durP1;ratioP1;P2;durP2;ratioP2
62535;SDS011;63050;47.514;18.920;2022-12-26T00:00:26;12.50;;;8.00;;
62535;SDS011;63050;47.514;18.920;2022-12-26T00:05:27;12.70;;;9.20;;
62535;SDS011;63050;47.514;18.920;2022-12-26T00:10:28;13.70;;;8.50;;
62535;SDS011;63050;47.514;18.920;2022-12-26T00:15:29;14.80;;;7.60;;
62535;SDS011;63050;47.514;18.920;2022-12-26T00:20:30;11.30;;;8.20;;
62535;SDS011;63050;47.514;18.920;2022-12-26T00:25:32;12.70;;;7.70;;
62535;SDS011;63050;47.514;18.920;2022-12-26T00:30:36;13.10;;;8.10;;
62535;SDS011;63050;47.514;18.920;2022-12-26T00:35:37;15.20;;;8.70;;
62535;SDS011;63050;47.514;18.920;2022-12-26T00:40:38;11.00;;;8.30;;
62535;SDS011;63050;47.514;18.920;2022-12-26T00:45:43;15.00;;;8.40;;
62535;SDS011;63050;47.514;18.920;2022-12-26T00:50:45;12.00;;;8.70;;
62535;SDS011;63050;47.514;18.920;2022-12-26T00:55:46;13.00;;;8.50;;
62535;SDS011;63050;47.514;18.920;2022-12-26T01:00:48;9.40;;;8.10;;
62535;SDS011;63050;47.514;18.920;2022-12-26T01:05:50;11.90;;;8.30;;
62535;SDS011;63050;47.514;18.920;2022-12-26T01:10:51;12.90;;;8.20;;
62535;SDS011;63050;47.514;18.920;2022-12-26T01:15:52;12.00;;;7.80;;
62535;SDS011;63050;47.514;18.920;2022-12-26T01:21:04;11.80;;;7.90;;
62535;SDS011;63050;47.514;18.920;2022-12-26T01:26:07;11.10;;;8.00;;
62535;SDS011;63050;47.514;18.920;2022-12-26T01:31:08;11.50;;;7.30;;
62535;SDS011;63050;47.514;18.920;2022-12-26T01:36:09;14.60;;;8.50;;
62535;SDS011;63050;47.514;18.920;2022-12-26T01:41:10;12.10;;;9.60;;
62535;SDS011;63050;47.514;18.920;2022-12-26T01:46:37;15.80;;;9.60;;
62535;SDS011;63050;47.514;18.920;2022-12-26T01:51:40;14.10;;;8.90;;
62535;SDS011;63050;47.514;18.920;2022-12-26T01:56:43;12.50;;;8.70;;
62535;SDS011;63050;47.514;18.920;2022-12-26T02:01:46;16.00;;;10.40;;
62535;SDS011;63050;47.514;18.920;2022-12-26T02:06:50;18.10;;;10.30;;
62535;SDS011;63050;47.514;18.920;2022-12-26T02:11:57;13.80;;;9.40;;
62535;SDS011;63050;47.514;18.920;2022-12-26T02:17:02;12.80;;;8.80;;
62535;SDS011;63050;47.514;18.920;2022-12-26T02:32:25;12.60;;;8.30;;
62535;SDS011;63050;47.514;18.920;2022-12-26T02:38:07;11.50;;;7.10;;
62535;SDS011;63050;47.514;18.920;2022-12-26T02:43:28;9.50;;;7.60;;
62535;SDS011;63050;47.514;18.920;2022-12-26T02:48:44;12.60;;;8.30;;
62535;SDS011;63050;47.514;18.920;2022-12-26T02:59:41;14.20;;;8.60;;
62535;SDS011;63050;47.514;18.920;2022-12-26T03:05:11;12.80;;;7.60;;
62535;SDS011;63050;47.514;18.920;2022-12-26T03:10:34;12.90;;;8.30;;
62535;SDS011;63050;47.514;18.920;2022-12-26T03:16:08;11.60;;;8.20;;
62535;SDS011;63050;47.514;18.920;2022-12-26T03:21:30;11.50;;;8.00;;
62535;SDS011;63050;47.514;18.920;2022-12-26T03:26:52;9.80;;;7.80;;
62535;SDS011;63050;47.514;18.920;2022-12-26T03:31:54;10.20;;;7.60;;
62535;SDS011;63050;47.514;18.920;2022-12-26T03:37:00;10.60;;;7.80;;
62535;SDS011;63050;47.514;18.920;2022-12-26T03:42:22;11.70;;;8.40;;
62535;SDS011;63050;47.514;18.920;2022-12-26T03:48:04;16.00;;;9.20;;
62535;SDS011;63050;47.514;18.920;2022-12-26T03:53:34;9.20;;;7.20;;
62535;SDS011;63050;47.514;18.920;2022-12-26T04:04:34;13.90;;;8.80;;
62535;SDS011;63050;47.514;18.920;2022-12-26T04:10:04;9.10;;;6.70;;
62535;SDS011;63050;47.514;18.920;2022-12-26T04:26:09;11.70;;;8.10;;
62535;SDS011;63050;47.514;18.920;2022-12-26T04:31:36;11.70;;;8.00;;
62535;SDS011;63050;47.514;18.920;2022-12-26T04:37:17;12.90;;;9.20;;
62535;SDS011;63050;47.514;18.920;2022-12-26T04:42:40;11.10;;;8.00;;
62535;SDS011;63050;47.514;18.920;2022-12-26T04:48:02;10.90;;;7.80;;
62535;SDS011;63050;47.514;18.920;2022-12-26T04:53:22;13.60;;;8.80;;
62535;SDS011;63050;47.514;18.920;2022-12-26T04:58:23;11.90;;;7.70;;
62535;SDS011;63050;47.514;18.920;2022-12-26T05:03:26;12.30;;;8.80;;
62535;SDS011;63050;47.514;18.920;2022-12-26T05:08:46;12.10;;;7.50;;
62535;SDS011;63050;47.514;18.920;2022-12-26T05:14:05;10.10;;;7.90;;
62535;SDS011;63050;47.514;18.920;2022-12-26T05:19:08;10.60;;;7.40;;
62535;SDS011;63050;47.514;18.920;2022-12-26T05:24:37;11.30;;;8.90;;
62535;SDS011;63050;47.514;18.920;2022-12-26T05:29:58;12.30;;;8.20;;
62535;SDS011;63050;47.514;18.920;2022-12-26T05:34:59;11.40;;;8.70;;
62535;SDS011;63050;47.514;18.920;2022-12-26T05:40:00;13.30;;;9.40;;
62535;SDS011;63050;47.514;18.920;2022-12-26T05:45:01;15.30;;;10.00;;
62535;SDS011;63050;47.514;18.920;2022-12-26T05:50:02;13.00;;;9.40;;
62535;SDS011;63050;47.514;18.920;2022-12-26T05:55:03;14.50;;;9.70;;
62535;SDS011;63050;47.514;18.920;2022-12-26T06:00:05;16.50;;;10.30;;
62535;SDS011;63050;47.514;18.920;2022-12-26T06:05:09;13.60;;;10.60;;
62535;SDS011;63050;47.514;18.920;2022-12-26T06:10:10;13.20;;;9.70;;
62535;SDS011;63050;47.514;18.920;2022-12-26T06:15:12;12.90;;;9.50;;
62535;SDS011;63050;47.514;18.920;2022-12-26T06:20:13;11.80;;;8.70;;
62535;SDS011;63050;47.514;18.920;2022-12-26T06:25:14;13.70;;;9.50;;
62535;SDS011;63050;47.514;18.920;2022-12-26T06:30:15;15.90;;;10.10;;
62535;SDS011;63050;47.514;18.920;2022-12-26T06:35:16;13.90;;;10.10;;
62535;SDS011;63050;47.514;18.920;2022-12-26T06:40:17;14.20;;;10.60;;
62535;SDS011;63050;47.514;18.920;2022-12-26T06:45:18;13.20;;;9.90;;
62535;SDS011;63050;47.514;18.920;2022-12-26T06:50:19;14.30;;;9.90;;
62535;SDS011;63050;47.514;18.920;2022-12-26T06:55:22;12.40;;;9.40;;
62535;SDS011;63050;47.514;18.920;2022-12-26T07:00:24;13.50;;;9.50;;
62535;SDS011;63050;47.514;18.920;2022-12-26T07:05:26;13.70;;;9.20;;
62535;SDS011;63050;47.514;18.920;2022-12-26T07:10:27;12.30;;;10.10;;
62535;SDS011;63050;47.514;18.920;2022-12-26T07:15:28;13.00;;;8.60;;
62535;SDS011;63050;47.514;18.920;2022-12-26T07:20:29;13.50;;;9.50;;
62535;SDS011;63050;47.514;18.920;2022-12-26T07:25:30;15.00;;;9.10;;
62535;SDS011;63050;47.514;18.920;2022-12-26T07:30:31;14.50;;;9.20;;
62535;SDS011;63050;47.514;18.920;2022-12-26T07:35:32;13.40;;;9.70;;
62535;SDS011;63050;47.514;18.920;2022-12-26T07:40:34;12.20;;;8.40;;
62535;SDS011;63050;47.514;18.920;2022-12-26T07:45:35;15.50;;;9.60;;
62535;SDS011;63050;47.514;18.920;2022-12-26T07:50:36;14.80;;;9.80;;
62535;SDS011;63050;47.514;18.920;2022-12-26T07:55:37;14.60;;;10.30;;
62535;SDS011;63050;47.514;18.920;2022-12-26T08:00:38;13.50;;;10.60;;
62535;SDS011;63050;47.514;18.920;2022-12-26T08:05:39;15.30;;;11.30;;
62535;SDS011;63050;47.514;18.920;2022-12-26T08:10:44;15.80;;;11.20;;
62535;SDS011;63050;47.514;18.920;2022-12-26T08:15:46;18.50;;;11.90;;
62535;SDS011;63050;47.514;18.920;2022-12-26T08:20:47;17.70;;;12.50;;
62535;SDS011;63050;47.514;18.920;2022-12-26T08:25:48;18.70;;;13.00;;
62535;SDS011;63050;47.514;18.920;2022-12-26T08:30:49;20.20;;;14.20;;
62535;SDS011;63050;47.514;18.920;2022-12-26T08:35:51;21.70;;;15.70;;
62535;SDS011;63050;47.514;18.920;2022-12-26T08:40:52;26.10;;;17.90;;
62535;SDS011;63050;47.514;18.920;2022-12-26T08:45:59;26.10;;;18.60;;
62535;SDS011;63050;47.514;18.920;2022-12-26T08:51:05;29.10;;;21.90;;
62535;SDS011;63050;47.514;18.920;2022-12-26T08:56:09;31.00;;;21.50;;
62535;SDS011;63050;47.514;18.920;2022-12-26T09:01:17;25.70;;;19.80;;
62535;SDS011;63050;47.514;18.920;2022-12-26T09:06:20;22.40;;;16.50;;
62535;SDS011;63050;47.514;18.920;2022-12-26T09:11:22;22.30;;;16.70;;
62535;SDS011;63050;47.514;18.920;2022-12-26T09:16:28;20.50;;;15.60;;
62535;SDS011;63050;47.514;18.920;2022-12-26T09:21:31;22.90;;;14.70;;
62535;SDS011;63050;47.514;18.920;2022-12-26T09:26:32;20.30;;;15.40;;
62535;SDS011;63050;47.514;18.920;2022-12-26T09:31:34;20.70;;;14.80;;
62535;SDS011;63050;47.514;18.920;2022-12-26T09:36:36;19.00;;;14.70;;
62535;SDS011;63050;47.514;18.920;2022-12-26T09:57:43;20.40;;;15.30;;
62535;SDS011;63050;47.514;18.920;2022-12-26T10:02:48;20.80;;;16.00;;
62535;SDS011;63050;47.514;18.920;2022-12-26T10:07:59;22.50;;;15.70;;
62535;SDS011;63050;47.514;18.920;2022-12-26T10:13:29;16.00;;;14.20;;
62535;SDS011;63050;47.514;18.920;2022-12-26T10:29:12;16.30;;;13.70;;
62535;SDS011;63050;47.514;18.920;2022-12-26T10:34:27;14.80;;;13.20;;
62535;SDS011;63050;47.514;18.920;2022-12-26T10:39:47;17.40;;;12.80;;
62535;SDS011;63050;47.514;18.920;2022-12-26T10:45:01;13.70;;;11.20;;
62535;SDS011;63050;47.514;18.920;2022-12-26T10:50:03;17.90;;;13.20;;
62535;SDS011;63050;47.514;18.920;2022-12-26T10:55:05;16.10;;;11.80;;
62535;SDS011;63050;47.514;18.920;2022-12-26T11:00:13;17.30;;;12.20;;
62535;SDS011;63050;47.514;18.920;2022-12-26T11:05:21;13.20;;;9.90;;
62535;SDS011;63050;47.514;18.920;2022-12-26T11:10:23;14.50;;;10.00;;
62535;SDS011;63050;47.514;18.920;2022-12-26T11:15:31;14.70;;;10.30;;
62535;SDS011;63050;47.514;18.920;2022-12-26T11:20:34;13.50;;;10.70;;
62535;SDS011;63050;47.514;18.920;2022-12-26T11:25:39;13.20;;;10.40;;
62535;SDS011;63050;47.514;18.920;2022-12-26T11:30:50;14.70;;;11.00;;
62535;SDS011;63050;47.514;18.920;2022-12-26T11:41:18;14.40;;;11.00;;
62535;SDS011;63050;47.514;18.920;2022-12-26T11:46:32;16.70;;;12.10;;
62535;SDS011;63050;47.514;18.920;2022-12-26T11:51:40;14.00;;;11.50;;
62535;SDS011;63050;47.514;18.920;2022-12-26T11:56:42;14.50;;;9.90;;
62535;SDS011;63050;47.514;18.920;2022-12-26T12:01:43;14.60;;;10.60;;
62535;SDS011;63050;47.514;18.920;2022-12-26T12:06:52;15.70;;;11.30;;
62535;SDS011;63050;47.514;18.920;2022-12-26T12:17:20;14.90;;;11.60;;
62535;SDS011;63050;47.514;18.920;2022-12-26T12:44:17;21.70;;;14.30;;
62535;SDS011;63050;47.514;18.920;2022-12-26T12:59:37;20.30;;;14.50;;
62535;SDS011;63050;47.514;18.920;2022-12-26T13:10:29;21.80;;;16.30;;
62535;SDS011;63050;47.514;18.920;2022-12-26T13:20:41;20.80;;;15.30;;
62535;SDS011;63050;47.514;18.920;2022-12-26T13:25:47;19.40;;;14.70;;
62535;SDS011;63050;47.514;18.920;2022-12-26T13:30:54;21.40;;;15.30;;
62535;SDS011;63050;47.514;18.920;2022-12-26T13:35:56;20.20;;;14.90;;
62535;SDS011;63050;47.514;18.920;2022-12-26T13:41:00;19.80;;;14.00;;
62535;SDS011;63050;47.514;18.920;2022-12-26T13:51:45;19.70;;;15.50;;
62535;SDS011;63050;47.514;18.920;2022-12-26T14:13:59;21.10;;;15.60;;
62535;SDS011;63050;47.514;18.920;2022-12-26T14:24:41;25.20;;;17.00;;
62535;SDS011;63050;47.514;18.920;2022-12-26T14:29:54;20.50;;;15.50;;
62535;SDS011;63050;47.514;18.920;2022-12-26T14:50:46;20.80;;;15.80;;
62535;SDS011;63050;47.514;18.920;2022-12-26T14:55:48;18.60;;;14.10;;
62535;SDS011;63050;47.514;18.920;2022-12-26T15:05:56;19.40;;;14.00;;
62535;SDS011;63050;47.514;18.920;2022-12-26T15:16:21;22.00;;;14.10;;
62535;SDS011;63050;47.514;18.920;2022-12-26T15:32:03;22.10;;;13.90;;
62535;SDS011;63050;47.514;18.920;2022-12-26T15:37:18;21.00;;;13.40;;
62535;SDS011;63050;47.514;18.920;2022-12-26T15:48:05;19.20;;;14.40;;
62535;SDS011;63050;47.514;18.920;2022-12-26T16:03:41;21.30;;;13.40;;
62535;SDS011;63050;47.514;18.920;2022-12-26T16:08:53;18.70;;;14.10;;
62535;SDS011;63050;47.514;18.920;2022-12-26T16:13:57;19.50;;;14.20;;
62535;SDS011;63050;47.514;18.920;2022-12-26T16:19:13;18.80;;;14.10;;
62535;SDS011;63050;47.514;18.920;2022-12-26T16:24:22;17.90;;;13.40;;
62535;SDS011;63050;47.514;18.920;2022-12-26T16:29:23;22.00;;;14.50;;
62535;SDS011;63050;47.514;18.920;2022-12-26T16:34:24;19.50;;;14.90;;
62535;SDS011;63050;47.514;18.920;2022-12-26T16:39:34;21.70;;;15.10;;
62535;SDS011;63050;47.514;18.920;2022-12-26T16:44:36;17.80;;;14.10;;
62535;SDS011;63050;47.514;18.920;2022-12-26T16:49:39;19.30;;;13.70;;
62535;SDS011;63050;47.514;18.920;2022-12-26T16:54:43;18.50;;;14.00;;
62535;SDS011;63050;47.514;18.920;2022-12-26T16:59:51;17.70;;;12.50;;
62535;SDS011;63050;47.514;18.920;2022-12-26T17:04:58;18.50;;;13.50;;
62535;SDS011;63050;47.514;18.920;2022-12-26T17:10:02;15.80;;;11.70;;
62535;SDS011;63050;47.514;18.920;2022-12-26T17:15:04;31.70;;;25.00;;
62535;SDS011;63050;47.514;18.920;2022-12-26T17:20:40;18.10;;;13.20;;
62535;SDS011;63050;47.514;18.920;2022-12-26T17:25:35;18.40;;;14.80;;
62535;SDS011;63050;47.514;18.920;2022-12-26T17:35:39;13.60;;;9.80;;
62535;SDS011;63050;47.514;18.920;2022-12-26T17:40:41;13.20;;;9.70;;
62535;SDS011;63050;47.514;18.920;2022-12-26T17:45:42;15.10;;;9.70;;
62535;SDS011;63050;47.514;18.920;2022-12-26T17:50:45;12.50;;;9.70;;
62535;SDS011;63050;47.514;18.920;2022-12-26T17:55:48;13.70;;;10.00;;
62535;SDS011;63050;47.514;18.920;2022-12-26T18:00:50;14.20;;;10.30;;
62535;SDS011;63050;47.514;18.920;2022-12-26T18:05:52;17.80;;;10.30;;
62535;SDS011;63050;47.514;18.920;2022-12-26T18:10:56;12.70;;;8.70;;
62535;SDS011;63050;47.514;18.920;2022-12-26T18:15:59;11.70;;;8.70;;
62535;SDS011;63050;47.514;18.920;2022-12-26T18:21:01;12.10;;;8.20;;
62535;SDS011;63050;47.514;18.920;2022-12-26T18:26:10;14.80;;;8.00;;
62535;SDS011;63050;47.514;18.920;2022-12-26T18:31:17;13.40;;;8.90;;
62535;SDS011;63050;47.514;18.920;2022-12-26T18:36:19;11.70;;;8.40;;
62535;SDS011;63050;47.514;18.920;2022-12-26T18:41:23;13.20;;;7.70;;
62535;SDS011;63050;47.514;18.920;2022-12-26T18:46:25;11.40;;;8.30;;
62535;SDS011;63050;47.514;18.920;2022-12-26T18:51:27;10.80;;;7.70;;
62535;SDS011;63050;47.514;18.920;2022-12-26T18:56:28;12.20;;;8.60;;
62535;SDS011;63050;47.514;18.920;2022-12-26T19:01:30;12.70;;;7.50;;
62535;SDS011;63050;47.514;18.920;2022-12-26T19:06:31;9.50;;;7.80;;
62535;SDS011;63050;47.514;18.920;2022-12-26T19:11:35;9.50;;;7.40;;
62535;SDS011;63050;47.514;18.920;2022-12-26T19:16:36;11.10;;;8.10;;
62535;SDS011;63050;47.514;18.920;2022-12-26T19:21:38;13.80;;;8.60;;
62535;SDS011;63050;47.514;18.920;2022-12-26T19:26:39;13.20;;;8.50;;
62535;SDS011;63050;47.514;18.920;2022-12-26T19:31:41;12.10;;;8.50;;
62535;SDS011;63050;47.514;18.920;2022-12-26T19:36:43;12.90;;;9.00;;
62535;SDS011;63050;47.514;18.920;2022-12-26T19:41:44;15.80;;;9.40;;
62535;SDS011;63050;47.514;18.920;2022-12-26T19:46:46;13.50;;;8.80;;
62535;SDS011;63050;47.514;18.920;2022-12-26T19:51:47;11.00;;;8.40;;
62535;SDS011;63050;47.514;18.920;2022-12-26T19:56:50;10.80;;;7.50;;
62535;SDS011;63050;47.514;18.920;2022-12-26T20:01:51;12.40;;;7.50;;
62535;SDS011;63050;47.514;18.920;2022-12-26T20:06:52;10.80;;;7.70;;
62535;SDS011;63050;47.514;18.920;2022-12-26T20:11:54;10.50;;;8.30;;
62535;SDS011;63050;47.514;18.920;2022-12-26T20:16:56;15.70;;;12.00;;
62535;SDS011;63050;47.514;18.920;2022-12-26T20:21:58;24.80;;;15.90;;
62535;SDS011;63050;47.514;18.920;2022-12-26T20:27:00;19.10;;;14.50;;
62535;SDS011;63050;47.514;18.920;2022-12-26T20:32:02;22.80;;;17.80;;
62535;SDS011;63050;47.514;18.920;2022-12-26T20:37:04;26.60;;;18.30;;
62535;SDS011;63050;47.514;18.920;2022-12-26T20:42:05;25.30;;;17.90;;
62535;SDS011;63050;47.514;18.920;2022-12-26T20:47:08;22.80;;;16.00;;
62535;SDS011;63050;47.514;18.920;2022-12-26T20:52:09;18.30;;;13.60;;
62535;SDS011;63050;47.514;18.920;2022-12-26T20:57:10;15.60;;;12.80;;
62535;SDS011;63050;47.514;18.920;2022-12-26T21:02:12;16.70;;;12.40;;
62535;SDS011;63050;47.514;18.920;2022-12-26T21:07:13;15.80;;;13.00;;
62535;SDS011;63050;47.514;18.920;2022-12-26T21:12:14;15.70;;;11.70;;
62535;SDS011;63050;47.514;18.920;2022-12-26T21:17:16;14.70;;;11.70;;
62535;SDS011;63050;47.514;18.920;2022-12-26T21:22:19;14.10;;;11.00;;
62535;SDS011;63050;47.514;18.920;2022-12-26T21:27:20;17.60;;;14.30;;
62535;SDS011;63050;47.514;18.920;2022-12-26T21:32:21;22.00;;;16.80;;
62535;SDS011;63050;47.514;18.920;2022-12-26T21:37:22;21.90;;;15.90;;
62535;SDS011;63050;47.514;18.920;2022-12-26T21:42:42;20.00;;;16.30;;
62535;SDS011;63050;47.514;18.920;2022-12-26T21:47:43;19.40;;;14.30;;
62535;SDS011;63050;47.514;18.920;2022-12-26T21:52:45;18.50;;;13.80;;
62535;SDS011;63050;47.514;18.920;2022-12-26T21:57:46;16.80;;;13.10;;
62535;SDS011;63050;47.514;18.920;2022-12-26T22:02:47;17.20;;;12.60;;
62535;SDS011;63050;47.514;18.920;2022-12-26T22:08:26;16.60;;;12.50;;
62535;SDS011;63050;47.514;18.920;2022-12-26T22:13:27;16.30;;;12.90;;
62535;SDS011;63050;47.514;18.920;2022-12-26T22:18:37;15.50;;;13.20;;
62535;SDS011;63050;47.514;18.920;2022-12-26T22:23:40;15.20;;;11.00;;
62535;SDS011;63050;47.514;18.920;2022-12-26T22:28:41;15.70;;;10.90;;
62535;SDS011;63050;47.514;18.920;2022-12-26T22:33:43;14.40;;;11.20;;
62535;SDS011;63050;47.514;18.920;2022-12-26T22:38:44;17.00;;;12.40;;
62535;SDS011;63050;47.514;18.920;2022-12-26T22:43:45;15.20;;;11.70;;
62535;SDS011;63050;47.514;18.920;2022-12-26T22:48:46;13.10;;;10.10;;
62535;SDS011;63050;47.514;18.920;2022-12-26T22:53:47;12.90;;;10.90;;
62535;SDS011;63050;47.514;18.920;2022-12-26T22:58:52;11.90;;;10.30;;
62535;SDS011;63050;47.514;18.920;2022-12-26T23:03:54;12.40;;;9.90;;
62535;SDS011;63050;47.514;18.920;2022-12-26T23:08:56;12.40;;;9.30;;
62535;SDS011;63050;47.514;18.920;2022-12-26T23:13:59;15.10;;;9.90;;
62535;SDS011;63050;47.514;18.920;2022-12-26T23:24:50;15.00;;;12.90;;
62535;SDS011;63050;47.514;18.920;2022-12-26T23:29:51;16.90;;;13.20;;
62535;SDS011;63050;47.514;18.920;2022-12-26T23:35:11;18.30;;;13.70;;
62535;SDS011;63050;47.514;18.920;2022-12-26T23:40:14;19.80;;;14.40;;
62535;SDS011;63050;47.514;18.920;2022-12-26T23:45:15;18.30;;;13.80;;
62535;SDS011;63050;47.514;18.920;2022-12-26T23:50:17;13.60;;;9.70;;
62535;SDS011;63050;47.514;18.920;2022-12-26T23:55:18;15.90;;;11.30;;
